createdAt,value
2023-01-27T00:01:42.376Z,7.7
2023-01-27T00:11:54.631Z,7.5
2023-01-27T00:17:00.834Z,7.5
2023-01-27T00:22:07.083Z,7.5
2023-01-27T00:27:12.286Z,7.4
2023-01-27T00:32:18.482Z,7.4
2023-01-27T00:37:24.717Z,7.4
2023-01-27T00:42:30.900Z,7.3
2023-01-27T00:47:37.107Z,7.3
2023-01-27T00:52:43.325Z,7.3
2023-01-27T00:57:49.522Z,7.3
2023-01-27T01:02:55.777Z,7.3
2023-01-27T01:08:01.934Z,7.2
2023-01-27T01:13:08.156Z,7.2
2023-01-27T01:18:14.351Z,7.2
2023-01-27T01:23:20.556Z,7.2
2023-01-27T01:28:26.775Z,7.1
2023-01-27T01:33:32.987Z,7.1
2023-01-27T01:38:39.180Z,7.1
2023-01-27T01:43:45.393Z,7.1
2023-01-27T01:48:51.599Z,7.1
2023-01-27T01:53:57.831Z,7.1
2023-01-27T01:59:04.015Z,7.1
2023-01-27T02:04:10.228Z,7.1
2023-01-27T02:09:16.432Z,7.1
2023-01-27T02:14:21.663Z,7.1
2023-01-27T02:19:27.875Z,7.0
2023-01-27T02:24:34.081Z,7.0
2023-01-27T02:29:40.478Z,7.0
2023-01-27T02:34:46.508Z,7.0
2023-01-27T02:39:52.707Z,7.0
2023-01-27T02:44:58.951Z,7.0
2023-01-27T02:50:05.122Z,6.9
2023-01-27T02:55:11.616Z,6.9
2023-01-27T03:00:17.537Z,6.9
2023-01-27T03:05:23.764Z,6.9
2023-01-27T03:10:29.953Z,6.9
2023-01-27T03:15:36.215Z,6.9
2023-01-27T03:20:42.403Z,6.9
2023-01-27T03:25:48.572Z,6.9
2023-01-27T03:30:54.988Z,6.9
2023-01-27T03:36:00.982Z,6.9
2023-01-27T03:41:07.203Z,6.8
2023-01-27T03:46:13.434Z,6.9
2023-01-27T03:51:19.648Z,6.9
2023-01-27T03:56:25.830Z,6.8
2023-01-27T04:01:31.090Z,6.8
2023-01-27T04:06:37.288Z,6.8
2023-01-27T04:11:43.491Z,6.8
2023-01-27T04:16:49.704Z,6.7
2023-01-27T04:21:55.881Z,6.7
2023-01-27T04:27:02.122Z,6.7
2023-01-27T04:32:08.316Z,6.6
2023-01-27T04:37:14.506Z,6.6
2023-01-27T04:42:20.714Z,6.6
2023-01-27T04:47:26.933Z,6.6
2023-01-27T04:52:33.121Z,6.6
2023-01-27T04:57:39.333Z,6.6
2023-01-27T05:02:45.614Z,6.6
2023-01-27T05:07:51.746Z,6.5
2023-01-27T05:12:57.956Z,6.5
2023-01-27T05:18:04.166Z,6.5
2023-01-27T05:23:10.368Z,6.5
2023-01-27T05:28:16.579Z,6.5
2023-01-27T05:33:22.789Z,6.5
2023-01-27T05:38:28.988Z,6.5
2023-01-27T05:43:35.196Z,6.5
2023-01-27T05:48:40.445Z,6.5
2023-01-27T05:53:46.638Z,6.5
2023-01-27T05:58:51.894Z,6.5
2023-01-27T06:03:58.087Z,6.6
2023-01-27T06:09:03.329Z,6.6
2023-01-27T06:14:09.544Z,6.6
2023-01-27T06:19:15.736Z,6.6
2023-01-27T06:24:21.985Z,6.6
2023-01-27T06:29:28.164Z,6.6
2023-01-27T06:34:34.361Z,6.6
2023-01-27T06:39:40.564Z,6.6
2023-01-27T06:44:46.781Z,6.6
2023-01-27T06:49:52.977Z,6.7
2023-01-27T06:54:59.187Z,6.7
2023-01-27T07:00:05.398Z,6.7
2023-01-27T07:05:11.712Z,6.7
2023-01-27T07:10:17.885Z,6.7
2023-01-27T07:15:24.023Z,6.8
2023-01-27T07:20:30.230Z,6.8
2023-01-27T07:25:36.441Z,6.8
2023-01-27T07:30:42.672Z,6.8
2023-01-27T07:35:48.851Z,6.8
2023-01-27T07:40:55.059Z,6.9
2023-01-27T07:46:01.337Z,6.9
2023-01-27T07:51:07.499Z,6.9
2023-01-27T07:56:12.713Z,6.9
2023-01-27T08:01:19.020Z,6.9
2023-01-27T08:06:25.126Z,6.9
2023-01-27T08:11:30.405Z,6.9
2023-01-27T08:16:36.598Z,6.9
2023-01-27T08:21:42.776Z,6.9
2023-01-27T08:26:48.983Z,6.8
2023-01-27T08:31:55.237Z,6.8
2023-01-27T08:37:01.398Z,6.8
2023-01-27T08:42:07.620Z,6.8
2023-01-27T08:47:13.811Z,6.8
2023-01-27T08:52:20.053Z,6.8
2023-01-27T08:57:26.223Z,6.9
2023-01-27T09:02:32.435Z,6.9
2023-01-27T09:07:38.646Z,6.9
2023-01-27T09:12:44.848Z,6.9
2023-01-27T09:17:51.084Z,6.9
2023-01-27T09:22:57.261Z,6.9
2023-01-27T09:28:03.488Z,6.9
2023-01-27T09:33:09.746Z,6.9
2023-01-27T09:38:15.893Z,6.9
2023-01-27T09:43:22.089Z,7.0
2023-01-27T09:48:28.299Z,7.0
2023-01-27T09:53:34.548Z,7.0
2023-01-27T09:58:39.739Z,7.1
2023-01-27T10:03:45.979Z,7.1
2023-01-27T10:08:51.181Z,7.1
2023-01-27T10:13:57.401Z,7.2
2023-01-27T10:19:03.598Z,7.2
2023-01-27T10:24:09.829Z,7.3
2023-01-27T10:29:16.009Z,7.3
2023-01-27T10:34:22.221Z,7.3
2023-01-27T10:39:28.434Z,7.2
2023-01-27T10:44:34.642Z,7.3
2023-01-27T10:49:40.845Z,7.3
2023-01-27T10:54:47.051Z,7.3
2023-01-27T11:00:18.016Z,7.3
2023-01-27T11:04:59.465Z,7.4
2023-01-27T11:10:05.673Z,7.4
2023-01-27T11:15:11.884Z,7.5
2023-01-27T11:20:18.089Z,7.5
2023-01-27T11:25:24.307Z,7.5
2023-01-27T11:30:30.562Z,7.6
2023-01-27T11:35:36.717Z,7.6
2023-01-27T11:40:42.932Z,7.6
2023-01-27T11:45:49.170Z,7.6
2023-01-27T11:50:55.334Z,7.7
2023-01-27T11:56:00.603Z,7.7
2023-01-27T12:01:06.793Z,7.7
2023-01-27T12:06:12.986Z,7.7
2023-01-27T12:11:19.194Z,7.8
2023-01-27T12:16:25.473Z,7.8
2023-01-27T12:21:31.614Z,7.8
2023-01-27T12:26:37.816Z,7.8
2023-01-27T12:31:44.052Z,7.9
2023-01-27T12:36:50.228Z,7.9
2023-01-27T12:41:56.436Z,7.9
2023-01-27T12:47:02.647Z,7.9
2023-01-27T12:52:08.857Z,7.9
2023-01-27T12:57:15.062Z,7.9
2023-01-27T13:02:21.376Z,7.9
2023-01-27T13:07:27.476Z,7.9
2023-01-27T13:12:33.680Z,7.9
2023-01-27T13:17:39.890Z,7.9
2023-01-27T13:22:46.103Z,7.9
2023-01-27T13:27:52.326Z,7.9
2023-01-27T13:32:58.511Z,7.9
2023-01-27T13:38:04.730Z,7.9
2023-01-27T13:48:16.163Z,7.9
2023-01-27T13:53:21.484Z,7.9
2023-01-27T13:58:27.605Z,7.9
2023-01-27T14:03:32.889Z,7.9
2023-01-27T14:08:39.051Z,7.9
2023-01-27T14:13:45.255Z,7.9
2023-01-27T14:18:50.486Z,7.9
2023-01-27T14:23:56.735Z,7.9
2023-01-27T14:29:02.921Z,7.9
2023-01-27T14:34:09.126Z,7.9
2023-01-27T14:39:15.327Z,7.9
2023-01-27T14:44:21.533Z,7.9
2023-01-27T14:49:27.749Z,7.9
2023-01-27T14:54:33.947Z,7.9
2023-01-27T14:59:40.149Z,7.9
2023-01-27T15:04:46.366Z,7.8
2023-01-27T15:09:52.568Z,7.8
2023-01-27T15:14:58.780Z,7.7
2023-01-27T15:20:06.614Z,7.7
2023-01-27T15:25:11.454Z,7.6
2023-01-27T15:30:17.407Z,7.6
2023-01-27T15:35:23.620Z,7.5
2023-01-27T15:40:29.836Z,7.5
2023-01-27T15:45:35.099Z,7.5
2023-01-27T15:50:41.249Z,7.4
2023-01-27T15:55:47.458Z,7.4
2023-01-27T16:00:53.717Z,7.4
2023-01-27T16:05:58.897Z,7.3
2023-01-27T16:11:05.103Z,7.3
2023-01-27T16:16:10.387Z,7.3
2023-01-27T16:21:16.566Z,7.2
2023-01-27T16:26:22.759Z,7.2
2023-01-27T16:31:28.996Z,7.2
2023-01-27T16:36:35.243Z,7.2
2023-01-27T16:41:41.380Z,7.2
2023-01-27T16:46:47.602Z,7.2
2023-01-27T16:51:53.794Z,7.1
2023-01-27T16:57:00.003Z,7.2
2023-01-27T17:02:06.207Z,7.2
2023-01-27T17:07:12.571Z,7.1
2023-01-27T17:12:18.624Z,7.1
2023-01-27T17:17:24.854Z,7.1
2023-01-27T17:22:31.042Z,7.1
2023-01-27T17:27:37.296Z,7.1
2023-01-27T17:32:43.467Z,7.1
2023-01-27T17:37:49.660Z,7.1
2023-01-27T17:42:55.870Z,7.1
2023-01-27T17:48:02.088Z,7.1
2023-01-27T17:53:08.280Z,7.1
2023-01-27T17:58:14.513Z,7.1
2023-01-27T18:03:19.722Z,7.1
2023-01-27T18:08:25.937Z,7.1
2023-01-27T18:13:31.170Z,7.1
2023-01-27T18:18:37.418Z,7.1
2023-01-27T18:23:43.578Z,7.0
2023-01-27T18:28:49.788Z,7.0
2023-01-27T18:33:56.008Z,7.0
2023-01-27T18:39:02.211Z,7.0
2023-01-27T18:44:08.432Z,7.0
2023-01-27T18:49:14.714Z,7.0
2023-01-27T18:54:20.822Z,7.0
2023-01-27T18:59:27.035Z,7.0
2023-01-27T19:04:33.252Z,7.0
2023-01-27T19:09:39.447Z,6.9
2023-01-27T19:14:45.672Z,6.9
2023-01-27T19:19:51.865Z,6.9
2023-01-27T19:24:58.068Z,6.9
2023-01-27T19:30:04.316Z,6.9
2023-01-27T19:35:10.830Z,6.9
2023-01-27T19:40:16.695Z,6.9
2023-01-27T19:45:22.971Z,6.9
2023-01-27T19:50:29.108Z,6.9
2023-01-27T19:55:35.316Z,6.9
2023-01-27T20:00:40.602Z,6.9
2023-01-27T20:05:46.755Z,6.9
2023-01-27T20:10:52.962Z,6.8
2023-01-27T20:15:59.179Z,6.8
2023-01-27T20:21:05.375Z,6.8
2023-01-27T20:26:11.585Z,6.8
2023-01-27T20:31:17.834Z,6.8
2023-01-27T20:36:24.011Z,6.7
2023-01-27T20:41:30.219Z,6.7
2023-01-27T20:46:36.410Z,6.7
2023-01-27T20:51:42.622Z,6.7
2023-01-27T20:56:48.827Z,6.7
2023-01-27T21:01:55.052Z,6.6
2023-01-27T21:07:01.245Z,6.6
2023-01-27T21:12:07.450Z,6.6
2023-01-27T21:17:13.773Z,6.6
2023-01-27T21:22:19.868Z,6.6
2023-01-27T21:27:26.190Z,6.6
2023-01-27T21:32:32.282Z,6.5
2023-01-27T21:37:38.489Z,6.5
2023-01-27T21:42:44.696Z,6.5
2023-01-27T21:47:50.060Z,6.5
2023-01-27T21:52:56.138Z,6.5
2023-01-27T21:58:01.371Z,6.4
2023-01-27T22:03:07.579Z,6.4
2023-01-27T22:08:12.814Z,6.4
2023-01-27T22:13:19.046Z,6.4
2023-01-27T22:18:25.229Z,6.3
2023-01-27T22:23:31.479Z,6.3
2023-01-27T22:28:37.670Z,6.3
2023-01-27T22:33:43.859Z,6.3
2023-01-27T22:38:50.061Z,6.3
2023-01-27T22:43:56.283Z,6.2
2023-01-27T22:49:02.484Z,6.2
2023-01-27T22:54:08.679Z,6.2
2023-01-27T22:59:14.885Z,6.2
2023-01-27T23:04:21.101Z,6.2
2023-01-27T23:09:27.314Z,6.2
2023-01-27T23:14:33.508Z,6.1
2023-01-27T23:19:39.718Z,6.1
2023-01-27T23:24:45.922Z,6.1
2023-01-27T23:29:52.129Z,6.1
2023-01-27T23:34:58.338Z,6.1
2023-01-27T23:40:04.543Z,6.1
2023-01-27T23:45:10.758Z,6.1
2023-01-27T23:50:16.961Z,6.1
2023-01-27T23:55:22.209Z,6.0
